createdAt,value
2018-08-25T00:00:38.479Z,25.3
2018-08-25T00:01:28.268Z,25.4
2018-08-25T00:02:18.603Z,25.3
2018-08-25T00:03:08.675Z,25.4
2018-08-25T00:03:58.453Z,25.4
2018-08-25T00:04:48.810Z,25.3
2018-08-25T00:05:38.862Z,25.4
2018-08-25T00:06:28.936Z,25.4
2018-08-25T00:07:18.719Z,25.4
2018-08-25T00:08:09.063Z,25.3
2018-08-25T00:08:59.171Z,25.4
2018-08-25T00:09:49.203Z,25.4
2018-08-25T00:10:39.261Z,25.4
2018-08-25T00:11:29.033Z,25.4
2018-08-25T00:12:19.112Z,25.4
2018-08-25T00:31:15.275Z,25.4
2018-08-25T00:32:04.796Z,25.4
2018-08-25T00:32:55.442Z,25.4
2018-08-25T00:33:45.506Z,25.4
2018-08-25T00:34:35.570Z,25.4
2018-08-25T00:35:25.628Z,25.4
2018-08-25T00:36:15.682Z,25.4
2018-08-25T00:37:05.754Z,25.4
2018-08-25T00:37:55.803Z,25.4
2018-08-25T00:38:45.880Z,25.4
2018-08-25T00:39:35.949Z,25.4
2018-08-25T00:40:25.717Z,25.4
2018-08-25T00:41:16.078Z,25.4
2018-08-25T00:42:06.159Z,25.4
2018-08-25T00:42:55.916Z,25.4
2018-08-25T00:43:46.267Z,25.4
2018-08-25T00:44:36.053Z,25.4
2018-08-25T00:45:26.390Z,25.4
2018-08-25T00:46:16.465Z,25.4
2018-08-25T00:47:06.521Z,25.4
2018-08-25T00:47:56.734Z,25.4
2018-08-25T00:48:46.664Z,25.4
2018-08-25T00:49:36.431Z,25.4
2018-08-25T00:50:26.783Z,25.4
2018-08-25T00:51:16.851Z,25.4
2018-08-25T00:52:06.618Z,25.4
2018-08-25T00:52:56.979Z,25.4
2018-08-25T00:53:47.052Z,25.4
2018-08-25T00:54:36.820Z,25.4
2018-08-25T00:55:27.170Z,25.4
2018-08-25T00:56:17.232Z,25.4
2018-08-25T00:57:07.304Z,25.4
2018-08-25T00:57:57.358Z,25.4
2018-08-25T00:58:47.437Z,25.4
2018-08-25T00:59:36.923Z,25.4
2018-08-25T01:00:27.577Z,25.4
2018-08-25T01:01:17.612Z,25.4
2018-08-25T01:02:07.699Z,25.4
2018-08-25T01:02:57.748Z,25.4
2018-08-25T01:03:47.808Z,25.4
2018-08-25T01:04:37.595Z,25.4
2018-08-25T01:05:27.973Z,25.4
2018-08-25T01:06:18.028Z,25.4
2018-08-25T01:07:08.073Z,25.4
2018-08-25T01:07:58.199Z,25.4
2018-08-25T01:08:47.929Z,25.4
2018-08-25T01:09:37.987Z,25.4
2018-08-25T01:10:28.352Z,25.4
2018-08-25T01:11:18.117Z,25.4
2018-08-25T01:12:08.465Z,25.4
2018-08-25T01:12:58.248Z,25.4
2018-08-25T01:13:48.603Z,25.4
2018-08-25T01:14:38.675Z,25.4
2018-08-25T01:15:28.528Z,25.4
2018-08-25T01:16:18.790Z,25.4
2018-08-25T01:17:08.875Z,25.4
2018-08-25T01:17:58.884Z,25.4
2018-08-25T01:18:48.980Z,25.4
2018-08-25T01:19:38.765Z,25.4
2018-08-25T01:20:28.842Z,25.5
2018-08-25T01:21:18.609Z,25.4
2018-08-25T01:22:08.961Z,25.4
2018-08-25T01:22:59.565Z,25.4
2018-08-25T01:23:49.387Z,25.4
2018-08-25T01:24:39.164Z,25.4
2018-08-25T01:25:29.528Z,25.4
2018-08-25T01:26:19.571Z,25.4
2018-08-25T01:27:09.628Z,25.4
2018-08-25T01:27:59.419Z,25.4
2018-08-25T01:28:49.482Z,25.5
2018-08-25T01:29:39.542Z,25.4
2018-08-25T01:30:29.889Z,25.4
2018-08-25T01:31:19.677Z,25.4
2018-08-25T01:32:09.821Z,25.4
2018-08-25T01:33:00.091Z,25.4
2018-08-25T01:33:50.141Z,25.4
2018-08-25T01:34:39.922Z,25.5
2018-08-25T01:35:30.309Z,25.4
2018-08-25T01:36:20.346Z,25.4
2018-08-25T01:37:10.423Z,25.4
2018-08-25T01:38:00.479Z,25.4
2018-08-25T01:38:50.250Z,25.4
2018-08-25T01:39:40.626Z,25.5
2018-08-25T01:40:30.669Z,25.4
2018-08-25T01:41:20.724Z,25.5
2018-08-25T01:42:10.528Z,25.4
2018-08-25T01:43:00.882Z,25.5
2018-08-25T01:43:50.922Z,25.5
2018-08-25T01:44:41.049Z,25.5
2018-08-25T01:45:31.052Z,25.5
2018-08-25T01:46:21.129Z,25.4
2018-08-25T01:47:11.204Z,25.5
2018-08-25T01:48:01.248Z,25.5
2018-08-25T01:48:50.997Z,25.4
2018-08-25T01:49:41.394Z,25.4
2018-08-25T01:50:31.162Z,25.5
2018-08-25T01:51:21.241Z,25.5
2018-08-25T01:52:11.592Z,25.5
2018-08-25T01:53:01.355Z,25.4
2018-08-25T01:53:51.421Z,25.5
2018-08-25T01:54:41.775Z,25.5
2018-08-25T01:55:31.829Z,25.5
2018-08-25T01:56:21.630Z,25.5
2018-08-25T01:57:11.969Z,25.4
2018-08-25T01:58:02.045Z,25.5
2018-08-25T01:58:52.111Z,25.5
2018-08-25T01:59:42.169Z,25.5
2018-08-25T02:00:32.482Z,25.5
2018-08-25T02:01:22.294Z,25.4
2018-08-25T02:02:12.066Z,25.5
2018-08-25T02:03:02.427Z,25.5
2018-08-25T02:03:52.737Z,25.5
2018-08-25T02:04:42.263Z,25.5
2018-08-25T02:05:32.862Z,25.5
2018-08-25T02:06:22.682Z,25.5
2018-08-25T02:07:12.755Z,25.5
2018-08-25T02:08:02.531Z,25.5
2018-08-25T02:08:52.879Z,25.5
2018-08-25T02:09:42.999Z,25.5
2018-08-25T02:10:32.483Z,25.5
2018-08-25T02:11:22.774Z,25.5
2018-08-25T02:12:12.844Z,25.5
2018-08-25T02:13:03.192Z,25.5
2018-08-25T02:13:53.510Z,25.5
2018-08-25T02:14:43.334Z,25.5
2018-08-25T02:15:33.109Z,25.5
2018-08-25T02:16:23.461Z,25.5
2018-08-25T02:17:13.516Z,25.5
2018-08-25T02:18:03.578Z,25.5
2018-08-25T02:18:53.638Z,25.5
2018-08-25T02:19:43.434Z,25.5
2018-08-25T02:20:33.482Z,25.5
2018-08-25T02:21:23.555Z,25.5
2018-08-25T02:22:13.915Z,25.5
2018-08-25T02:23:03.963Z,25.5
2018-08-25T02:23:53.745Z,25.5
2018-08-25T02:24:44.092Z,25.5
2018-08-25T02:25:33.878Z,25.5
2018-08-25T02:26:24.240Z,25.5
2018-08-25T02:27:14.294Z,25.5
2018-08-25T02:28:04.525Z,25.5
2018-08-25T02:28:54.442Z,25.5
2018-08-25T02:29:44.503Z,25.5
2018-08-25T02:30:34.275Z,25.5
2018-08-25T02:31:24.332Z,25.5
2018-08-25T02:32:14.693Z,25.6
2018-08-25T02:33:04.759Z,25.5
2018-08-25T02:33:54.812Z,25.5
2018-08-25T02:34:44.605Z,25.5
2018-08-25T02:35:34.667Z,25.5
2018-08-25T02:36:25.017Z,25.5
2018-08-25T02:37:15.084Z,25.5
2018-08-25T02:38:04.853Z,25.5
2018-08-25T02:38:54.931Z,25.5
2018-08-25T02:39:45.271Z,25.5
2018-08-25T02:40:35.146Z,25.6
2018-08-25T02:41:25.395Z,25.5
2018-08-25T02:42:15.731Z,25.5
2018-08-25T02:43:05.521Z,25.5
2018-08-25T02:43:55.611Z,25.5
2018-08-25T02:44:45.657Z,25.5
2018-08-25T02:45:35.744Z,25.6
2018-08-25T02:46:25.790Z,25.5
2018-08-25T02:47:15.836Z,25.6
2018-08-25T02:48:05.920Z,25.5
2018-08-25T02:48:55.688Z,25.5
2018-08-25T02:49:45.764Z,25.5
2018-08-25T02:50:36.110Z,25.6
2018-08-25T02:51:25.893Z,25.5
2018-08-25T02:52:15.949Z,25.5
2018-08-25T02:53:06.312Z,25.6
2018-08-25T02:53:56.080Z,25.5
2018-08-25T02:54:46.690Z,25.5
2018-08-25T02:55:36.496Z,25.5
2018-08-25T02:56:26.571Z,25.5
2018-08-25T02:57:16.618Z,25.5
2018-08-25T02:58:06.414Z,25.5
2018-08-25T02:58:56.748Z,25.5
2018-08-25T02:59:46.813Z,25.6
2018-08-25T03:00:36.890Z,25.5
2018-08-25T03:01:26.974Z,25.6
2018-08-25T03:02:17.020Z,25.5
2018-08-25T03:03:07.075Z,25.5
2018-08-25T03:03:57.151Z,25.5
2018-08-25T03:04:47.199Z,25.5
2018-08-25T03:05:36.996Z,25.6
2018-08-25T03:06:27.053Z,25.5
2018-08-25T03:07:17.404Z,25.6
2018-08-25T03:08:07.476Z,25.6
2018-08-25T03:08:57.529Z,25.6
2018-08-25T03:09:47.598Z,25.6
2018-08-25T03:10:37.661Z,25.6
2018-08-25T03:11:27.437Z,25.5
2018-08-25T03:12:17.514Z,25.6
2018-08-25T03:13:07.816Z,25.6
2018-08-25T03:13:57.940Z,25.5
2018-08-25T03:14:47.698Z,25.6
2018-08-25T03:15:37.733Z,25.5
2018-08-25T03:16:28.117Z,25.6
2018-08-25T03:17:18.192Z,25.5
2018-08-25T03:18:08.506Z,25.6
2018-08-25T03:18:58.033Z,25.6
2018-08-25T03:19:48.369Z,25.5
2018-08-25T03:20:38.432Z,25.6
2018-08-25T03:21:28.217Z,25.6
2018-08-25T03:22:18.822Z,25.6
2018-08-25T03:23:08.638Z,25.6
2018-08-25T03:23:58.747Z,25.6
2018-08-25T03:24:48.779Z,25.6
2018-08-25T03:25:38.253Z,25.6
2018-08-25T03:26:28.895Z,25.6
2018-08-25T03:27:18.987Z,25.6
2018-08-25T03:28:09.024Z,25.6
2018-08-25T03:28:58.806Z,25.6
2018-08-25T03:29:48.849Z,25.6
2018-08-25T03:30:38.931Z,25.6
2018-08-25T03:31:29.276Z,25.6
2018-08-25T03:32:19.415Z,25.6
2018-08-25T03:33:09.412Z,25.6
2018-08-25T03:33:59.478Z,25.6
2018-08-25T03:34:49.244Z,25.6
2018-08-25T03:35:39.588Z,25.6
2018-08-25T03:36:29.658Z,25.6
2018-08-25T03:37:19.436Z,25.6
2018-08-25T03:38:09.785Z,25.6
2018-08-25T03:38:59.567Z,25.6
2018-08-25T03:39:49.637Z,25.6
2018-08-25T03:40:40.245Z,25.6
2018-08-25T03:41:29.761Z,25.6
2018-08-25T03:42:20.116Z,25.6
2018-08-25T03:43:10.202Z,25.6
2018-08-25T03:44:00.522Z,25.6
2018-08-25T03:44:50.315Z,25.6
2018-08-25T03:45:40.386Z,25.6
2018-08-25T03:46:30.448Z,25.6
2018-08-25T03:47:20.219Z,25.6
2018-08-25T03:48:10.566Z,25.6
2018-08-25T03:49:00.685Z,25.6
2018-08-25T03:49:50.708Z,25.6
2018-08-25T03:50:40.757Z,25.6
2018-08-25T03:51:30.535Z,25.6
2018-08-25T03:52:20.898Z,25.6
2018-08-25T03:53:10.962Z,25.6
2018-08-25T03:54:00.445Z,25.6
2018-08-25T03:54:51.077Z,25.6
2018-08-25T03:55:41.158Z,25.6
2018-08-25T03:56:31.208Z,25.6
2018-08-25T03:57:21.275Z,25.6
2018-08-25T03:58:11.339Z,25.6
2018-08-25T03:59:01.429Z,25.6
2018-08-25T03:59:51.469Z,25.6
2018-08-25T04:00:41.525Z,25.6
2018-08-25T04:01:31.698Z,25.5
2018-08-25T04:02:21.669Z,25.6
2018-08-25T04:03:11.717Z,25.6
2018-08-25T04:04:02.062Z,25.6
2018-08-25T04:04:51.864Z,25.6
2018-08-25T04:05:41.916Z,25.6
2018-08-25T04:06:31.974Z,25.6
2018-08-25T04:07:21.760Z,25.6
2018-08-25T04:08:11.839Z,25.6
2018-08-25T04:09:02.175Z,25.6
2018-08-25T04:09:51.953Z,25.6
2018-08-25T04:10:42.333Z,25.6
2018-08-25T04:11:32.375Z,25.6
2018-08-25T04:12:22.144Z,25.6
2018-08-25T04:13:12.506Z,25.6
2018-08-25T04:14:02.274Z,25.6
2018-08-25T04:14:52.830Z,25.6
2018-08-25T04:15:42.702Z,25.6
2018-08-25T04:16:32.466Z,25.6
2018-08-25T04:17:22.883Z,25.6
2018-08-25T04:18:12.886Z,25.6
2018-08-25T04:19:02.957Z,25.6
2018-08-25T04:19:52.735Z,25.7
2018-08-25T04:20:43.082Z,25.7
2018-08-25T04:21:33.145Z,25.7
2018-08-25T04:22:23.572Z,25.7
2018-08-25T04:23:13.297Z,25.7
2018-08-25T04:24:03.056Z,25.7
2018-08-25T04:24:53.419Z,25.8
2018-08-25T04:25:43.287Z,25.8
2018-08-25T04:26:33.264Z,25.8
2018-08-25T04:27:23.358Z,25.8
2018-08-25T04:28:13.677Z,25.8
2018-08-25T04:29:03.467Z,25.8
2018-08-25T04:29:53.796Z,25.8
2018-08-25T04:30:43.856Z,25.8
2018-08-25T04:31:33.932Z,25.8
2018-08-25T04:32:23.989Z,25.8
2018-08-25T04:33:14.075Z,25.8
2018-08-25T04:34:03.838Z,25.7
2018-08-25T04:34:54.172Z,25.8
2018-08-25T04:35:44.245Z,25.7
2018-08-25T04:36:34.305Z,25.7
2018-08-25T04:37:24.088Z,25.8
2018-08-25T04:38:14.436Z,25.8
2018-08-25T04:39:04.489Z,25.7
2018-08-25T04:39:54.566Z,25.8
2018-08-25T04:40:44.619Z,25.8
2018-08-25T04:41:34.417Z,25.7
2018-08-25T04:42:24.765Z,25.7
2018-08-25T05:00:23.713Z,25.7
2018-08-25T05:01:13.278Z,25.7
2018-08-25T05:02:03.648Z,25.7
2018-08-25T05:02:53.390Z,25.7
2018-08-25T05:03:43.176Z,25.7
2018-08-25T05:04:33.514Z,25.7
2018-08-25T05:05:23.835Z,25.7
2018-08-25T05:06:13.662Z,25.8
2018-08-25T05:07:03.696Z,25.7
2018-08-25T05:07:53.777Z,25.7
2018-08-25T05:08:43.791Z,25.7
2018-08-25T05:09:33.609Z,25.7
2018-08-25T05:10:24.221Z,25.7
2018-08-25T05:11:13.743Z,25.7
2018-08-25T05:12:03.804Z,25.7
2018-08-25T05:12:54.155Z,25.7
2018-08-25T05:13:44.181Z,25.7
2018-08-25T05:14:34.285Z,25.7
2018-08-25T05:15:24.062Z,25.7
2018-08-25T05:16:14.422Z,25.7
2018-08-25T05:17:04.189Z,25.7
2018-08-25T05:17:54.545Z,25.7
2018-08-25T05:18:44.568Z,25.7
2018-08-25T05:19:34.668Z,25.7
2018-08-25T05:20:24.451Z,25.7
2018-08-25T05:21:14.810Z,25.7
2018-08-25T05:22:05.384Z,25.7
2018-08-25T05:22:54.921Z,25.6
2018-08-25T05:23:44.988Z,25.6
2018-08-25T05:24:35.060Z,25.6
2018-08-25T05:25:25.371Z,25.6
2018-08-25T05:26:15.175Z,25.6
2018-08-25T05:27:05.249Z,25.6
2018-08-25T05:27:55.314Z,25.6
2018-08-25T05:28:45.376Z,25.5
2018-08-25T05:29:35.437Z,25.4
2018-08-25T05:30:25.496Z,25.4
2018-08-25T05:31:15.284Z,25.4
2018-08-25T05:32:05.641Z,25.4
2018-08-25T05:32:55.709Z,25.4
2018-08-25T05:33:46.041Z,25.4
2018-08-25T05:34:35.835Z,25.4
2018-08-25T05:35:25.605Z,25.5
2018-08-25T05:36:15.955Z,25.5
2018-08-25T05:37:05.737Z,25.5
2018-08-25T05:37:56.073Z,25.5
2018-08-25T05:38:46.158Z,25.5
2018-08-25T05:39:35.931Z,25.4
2018-08-25T05:40:25.987Z,25.4
2018-08-25T05:41:16.349Z,25.4
2018-08-25T05:42:06.398Z,25.5
2018-08-25T05:42:56.179Z,25.5
2018-08-25T05:43:46.536Z,25.5
2018-08-25T05:44:36.324Z,25.5
2018-08-25T05:45:26.655Z,25.5
2018-08-25T05:46:16.712Z,25.5
2018-08-25T05:47:06.794Z,25.6
2018-08-25T05:47:56.284Z,25.5
2018-08-25T05:48:46.924Z,25.6
2018-08-25T05:49:36.705Z,25.6
2018-08-25T05:50:27.040Z,25.6
2018-08-25T05:51:17.105Z,25.6
2018-08-25T05:52:07.202Z,25.6
2018-08-25T05:52:57.473Z,25.6
2018-08-25T05:53:47.289Z,25.6
2018-08-25T05:54:37.374Z,25.6
2018-08-25T05:55:27.420Z,25.6
2018-08-25T05:56:17.496Z,25.6
2018-08-25T05:57:07.542Z,25.6
2018-08-25T05:57:57.613Z,25.6
2018-08-25T05:58:47.693Z,25.6
2018-08-25T05:59:37.746Z,25.6
2018-08-25T06:00:27.516Z,25.6
2018-08-25T06:01:17.874Z,25.6
2018-08-25T06:02:07.639Z,25.6
2018-08-25T06:02:57.987Z,25.6
2018-08-25T06:03:47.773Z,25.6
2018-08-25T06:04:37.826Z,25.6
2018-08-25T06:05:28.186Z,25.6
2018-08-25T06:06:18.259Z,25.6
2018-08-25T06:07:08.310Z,25.6
2018-08-25T06:07:58.105Z,25.6
2018-08-25T06:08:48.435Z,25.6
2018-08-25T06:09:38.213Z,25.6
2018-08-25T06:10:28.558Z,25.6
2018-08-25T06:11:18.627Z,25.6
2018-08-25T06:12:08.692Z,25.6
2018-08-25T06:12:58.751Z,25.6
2018-08-25T06:13:48.820Z,25.6
2018-08-25T06:14:39.129Z,25.6
2018-08-25T06:15:28.949Z,25.6
2018-08-25T06:16:18.711Z,25.6
2018-08-25T06:17:09.060Z,25.6
2018-08-25T06:17:58.838Z,25.6
2018-08-25T06:18:49.447Z,25.6
2018-08-25T06:19:39.258Z,25.6
2018-08-25T06:20:29.329Z,25.6
2018-08-25T06:21:19.390Z,25.6
2018-08-25T06:22:09.491Z,25.6
2018-08-25T06:22:59.528Z,25.7
2018-08-25T06:23:49.837Z,25.6
2018-08-25T06:24:39.640Z,25.6
2018-08-25T06:25:29.424Z,25.6
2018-08-25T06:26:19.770Z,25.6
2018-08-25T06:27:09.852Z,25.6
2018-08-25T06:28:00.140Z,25.6
2018-08-25T06:28:49.955Z,25.6
2018-08-25T06:29:40.257Z,25.6
2018-08-25T06:30:30.093Z,25.6
2018-08-25T06:31:20.150Z,25.6
2018-08-25T06:32:09.935Z,25.6
2018-08-25T06:33:00.525Z,25.6
2018-08-25T06:33:50.340Z,25.6
2018-08-25T06:34:40.409Z,25.6
2018-08-25T06:35:30.178Z,25.6
2018-08-25T06:36:20.535Z,25.6
2018-08-25T06:37:10.317Z,25.6
2018-08-25T06:38:01.057Z,25.6
2018-08-25T06:38:50.736Z,25.6
2018-08-25T06:39:40.781Z,25.5
2018-08-25T06:40:31.091Z,25.5
2018-08-25T06:41:20.920Z,25.5
2018-08-25T06:42:10.976Z,25.5
2018-08-25T06:43:01.050Z,25.5
2018-08-25T06:43:50.812Z,25.5
2018-08-25T06:44:41.157Z,25.5
2018-08-25T06:45:30.937Z,25.5
2018-08-25T06:46:21.299Z,25.5
2018-08-25T06:47:11.371Z,25.5
2018-08-25T06:48:01.427Z,25.5
2018-08-25T06:48:51.492Z,25.5
2018-08-25T06:49:41.554Z,25.5
2018-08-25T06:50:31.903Z,25.5
2018-08-25T06:51:21.684Z,25.5
2018-08-25T06:52:11.723Z,25.5
2018-08-25T06:53:01.836Z,25.5
2018-08-25T06:53:51.289Z,25.5
2018-08-25T06:54:41.351Z,25.5
2018-08-25T06:55:32.006Z,25.5
2018-08-25T06:56:21.767Z,25.5
2018-08-25T06:57:12.129Z,25.5
2018-08-25T06:58:02.179Z,25.5
2018-08-25T06:58:52.239Z,25.4
2018-08-25T06:59:42.326Z,25.4
2018-08-25T07:00:32.369Z,25.5
2018-08-25T07:01:22.437Z,25.5
2018-08-25T07:02:12.494Z,25.4
2018-08-25T07:03:02.575Z,25.5
2018-08-25T07:03:52.626Z,25.5
2018-08-25T07:04:42.936Z,25.5
2018-08-25T07:05:32.771Z,25.5
2018-08-25T07:06:22.830Z,25.5
2018-08-25T07:07:12.885Z,25.5
2018-08-25T07:08:02.963Z,25.5
2018-08-25T07:08:53.008Z,25.5
2018-08-25T07:09:43.068Z,25.5
2018-08-25T07:10:33.130Z,25.5
2018-08-25T07:11:23.207Z,25.5
2018-08-25T07:12:13.253Z,25.5
2018-08-25T07:13:03.543Z,25.5
2018-08-25T07:13:53.407Z,25.5
2018-08-25T07:14:43.446Z,25.6
2018-08-25T07:15:33.512Z,25.6
2018-08-25T07:16:22.998Z,25.6
2018-08-25T07:17:13.637Z,25.6
2018-08-25T07:18:03.701Z,25.6
2018-08-25T07:18:53.881Z,25.6
2018-08-25T07:19:43.554Z,25.6
2018-08-25T07:20:33.607Z,25.6
2018-08-25T07:21:23.960Z,25.6
2018-08-25T07:22:14.027Z,25.6
2018-08-25T07:23:04.104Z,25.6
2018-08-25T07:23:54.161Z,25.6
2018-08-25T07:24:43.972Z,25.6
2018-08-25T07:25:34.245Z,25.6
2018-08-25T07:26:24.500Z,25.6
2018-08-25T07:27:14.427Z,25.6
2018-08-25T07:28:04.474Z,25.6
2018-08-25T07:28:54.530Z,25.6
2018-08-25T07:29:44.605Z,25.6
2018-08-25T07:30:34.376Z,25.6
2018-08-25T07:31:24.989Z,25.6
2018-08-25T07:32:15.202Z,25.6
2018-08-25T07:33:04.861Z,25.6
2018-08-25T07:33:54.930Z,25.6
2018-08-25T07:34:45.004Z,25.6
2018-08-25T07:35:35.043Z,25.6
2018-08-25T07:36:25.081Z,25.6
2018-08-25T07:37:14.893Z,25.6
2018-08-25T07:38:05.257Z,25.6
2018-08-25T07:38:55.023Z,25.6
2018-08-25T07:39:45.374Z,25.6
2018-08-25T07:40:35.458Z,25.6
2018-08-25T07:41:25.748Z,25.7
2018-08-25T07:42:15.569Z,25.7
2018-08-25T07:43:05.632Z,25.6
2018-08-25T07:43:55.699Z,25.7
2018-08-25T07:44:45.483Z,25.6
2018-08-25T07:45:35.820Z,25.7
2018-08-25T07:46:25.896Z,25.7
2018-08-25T07:47:15.957Z,25.7
2018-08-25T07:48:06.024Z,25.7
2018-08-25T07:48:55.808Z,25.7
2018-08-25T07:49:46.153Z,25.7
2018-08-25T07:50:35.927Z,25.7
2018-08-25T07:51:26.266Z,25.7
2018-08-25T07:52:16.062Z,25.7
2018-08-25T07:53:06.428Z,25.7
2018-08-25T07:53:56.484Z,25.7
2018-08-25T07:54:46.254Z,25.7
2018-08-25T07:55:36.592Z,25.7
2018-08-25T07:56:26.669Z,25.7
2018-08-25T07:57:16.434Z,25.7
2018-08-25T07:58:06.785Z,25.7
2018-08-25T07:58:56.852Z,25.8
2018-08-25T07:59:46.624Z,25.8
2018-08-25T08:00:36.977Z,25.7
2018-08-25T08:01:26.759Z,25.7
2018-08-25T08:02:17.112Z,25.8
2018-08-25T08:03:06.906Z,25.8
2018-08-25T08:03:57.251Z,25.8
2018-08-25T08:04:47.429Z,25.8
2018-08-25T08:05:37.734Z,25.7
2018-08-25T08:06:27.146Z,25.8
2018-08-25T08:07:17.508Z,25.7
2018-08-25T08:08:07.292Z,25.8
2018-08-25T08:08:57.639Z,25.8
2018-08-25T08:09:47.695Z,25.8
2018-08-25T08:10:37.782Z,25.8
2018-08-25T08:11:27.832Z,25.8
2018-08-25T08:12:18.178Z,25.8
2018-08-25T08:13:07.971Z,25.8
2018-08-25T08:13:58.028Z,25.8
2018-08-25T08:14:47.800Z,25.8
2018-08-25T08:15:38.152Z,25.8
2018-08-25T08:16:28.206Z,25.8
2018-08-25T08:17:18.277Z,25.8
2018-08-25T08:18:07.771Z,25.8
2018-08-25T08:18:58.399Z,25.8
2018-08-25T08:19:48.466Z,25.8
2018-08-25T08:20:38.530Z,25.8
2018-08-25T08:21:28.029Z,25.8
2018-08-25T08:22:18.385Z,25.8
2018-08-25T08:23:08.741Z,25.8
2018-08-25T08:23:58.813Z,25.8
2018-08-25T08:24:48.850Z,25.8
2018-08-25T08:25:38.357Z,25.8
2018-08-25T08:26:28.985Z,25.8
2018-08-25T08:27:19.049Z,25.8
2018-08-25T08:28:09.146Z,25.8
2018-08-25T08:28:59.197Z,25.8
2018-08-25T08:29:49.257Z,25.8
2018-08-25T08:30:39.308Z,25.8
2018-08-25T08:31:29.385Z,25.8
2018-08-25T08:32:19.449Z,25.8
2018-08-25T08:33:10.142Z,25.8
2018-08-25T08:33:59.570Z,25.8
2018-08-25T08:34:49.640Z,25.8
2018-08-25T08:35:39.716Z,25.8
2018-08-25T08:36:29.776Z,25.8
2018-08-25T08:37:20.085Z,25.8
2018-08-25T08:38:09.912Z,25.8
2018-08-25T08:38:59.971Z,25.8
2018-08-25T08:39:50.027Z,25.8
2018-08-25T08:40:40.097Z,25.8
2018-08-25T08:41:30.178Z,25.8
2018-08-25T08:42:20.476Z,25.8
2018-08-25T08:43:10.300Z,25.8
2018-08-25T08:44:00.360Z,25.8
2018-08-25T08:44:50.416Z,25.8
2018-08-25T08:45:40.495Z,25.8
2018-08-25T08:46:30.558Z,25.8
2018-08-25T08:47:20.797Z,25.8
2018-08-25T08:48:10.690Z,25.8
2018-08-25T08:49:00.756Z,25.8
2018-08-25T08:49:50.809Z,25.8
2018-08-25T08:50:40.888Z,25.8
2018-08-25T08:51:31.207Z,25.9
2018-08-25T08:52:21.009Z,25.8
2018-08-25T08:53:10.782Z,25.8
2018-08-25T08:54:01.157Z,25.8
2018-08-25T08:54:51.199Z,25.8
2018-08-25T08:55:41.270Z,25.8
2018-08-25T08:56:31.327Z,25.8
2018-08-25T08:57:21.402Z,25.8
2018-08-25T08:58:11.499Z,25.8
2018-08-25T09:14:55.341Z,25.8
2018-08-25T09:15:44.876Z,25.8
2018-08-25T09:16:34.936Z,25.9
2018-08-25T09:17:25.278Z,25.8
2018-08-25T09:18:15.543Z,25.9
2018-08-25T09:19:05.407Z,25.9
2018-08-25T09:19:55.473Z,25.9
2018-08-25T09:20:45.250Z,25.9
2018-08-25T09:21:35.595Z,25.9
2018-08-25T09:22:25.655Z,25.9
2018-08-25T09:23:15.755Z,25.9
2018-08-25T09:24:05.794Z,25.9
2018-08-25T09:24:55.880Z,25.9
2018-08-25T09:25:45.930Z,25.9
2018-08-25T09:26:35.711Z,25.9
2018-08-25T09:27:26.263Z,25.9
2018-08-25T09:28:16.123Z,25.9
2018-08-25T09:29:06.188Z,25.9
2018-08-25T09:29:56.257Z,25.9
2018-08-25T09:30:46.319Z,25.9
2018-08-25T09:31:36.387Z,25.9
2018-08-25T09:32:26.166Z,25.9
2018-08-25T09:33:16.242Z,25.9
2018-08-25T09:34:06.595Z,25.9
2018-08-25T09:34:56.655Z,25.9
2018-08-25T09:35:46.903Z,25.9
2018-08-25T09:36:37.876Z,25.9
2018-08-25T09:37:26.857Z,25.9
2018-08-25T09:38:16.912Z,25.9
2018-08-25T09:39:06.992Z,25.9
2018-08-25T09:39:57.042Z,25.9
2018-08-25T09:40:47.106Z,25.9
2018-08-25T09:41:37.317Z,25.9
2018-08-25T09:42:27.227Z,26
2018-08-25T09:43:17.309Z,25.9
2018-08-25T09:44:07.092Z,25.9
2018-08-25T09:44:57.430Z,25.9
2018-08-25T09:45:47.496Z,25.9
2018-08-25T09:46:37.573Z,25.9
2018-08-25T09:47:27.354Z,25.9
2018-08-25T09:48:17.723Z,25.9
2018-08-25T09:49:07.770Z,25.9
2018-08-25T09:49:57.833Z,25.9
2018-08-25T09:50:47.904Z,25.9
2018-08-25T09:51:37.965Z,25.9
2018-08-25T09:52:28.046Z,25.9
2018-08-25T09:53:18.101Z,25.9
2018-08-25T09:54:08.149Z,25.9
2018-08-25T09:54:58.216Z,25.9
2018-08-25T09:55:47.997Z,25.9
2018-08-25T09:56:38.072Z,25.9
2018-08-25T09:57:28.394Z,25.9
2018-08-25T09:58:18.479Z,25.9
2018-08-25T09:59:08.821Z,25.9
2018-08-25T09:59:58.611Z,25.9
2018-08-25T10:00:48.402Z,25.9
2018-08-25T10:01:38.749Z,25.9
2018-08-25T10:02:29.075Z,25.9
2018-08-25T10:03:18.880Z,25.9
2018-08-25T10:04:08.952Z,25.9
2018-08-25T10:04:59.012Z,25.9
2018-08-25T10:05:49.084Z,25.9
2018-08-25T10:06:39.149Z,25.9
2018-08-25T10:07:29.218Z,25.9
2018-08-25T10:08:19.271Z,25.9
2018-08-25T10:09:09.053Z,25.9
2018-08-25T10:09:59.413Z,25.9
2018-08-25T10:10:49.649Z,25.9
2018-08-25T10:11:39.529Z,25.9
2018-08-25T10:12:29.597Z,25.9
2018-08-25T10:13:19.666Z,25.9
2018-08-25T10:14:09.730Z,25.9
2018-08-25T10:14:59.803Z,25.9
2018-08-25T10:15:49.571Z,25.9
2018-08-25T10:16:39.690Z,25.9
2018-08-25T10:17:29.996Z,25.9
2018-08-25T10:18:20.067Z,25.9
2018-08-25T10:19:10.115Z,25.9
2018-08-25T10:20:00.503Z,25.9
2018-08-25T10:20:50.226Z,25.9
2018-08-25T10:21:40.034Z,25.9
2018-08-25T10:22:30.377Z,25.9
2018-08-25T10:23:20.312Z,25.9
2018-08-25T10:24:10.532Z,25.9
2018-08-25T10:25:00.582Z,25.9
2018-08-25T10:25:50.649Z,25.9
2018-08-25T10:26:40.766Z,25.9
2018-08-25T10:27:30.764Z,25.9
2018-08-25T10:28:20.829Z,25.9
2018-08-25T10:29:10.834Z,25.9
2018-08-25T10:30:00.966Z,25.9
2018-08-25T10:30:51.051Z,25.9
2018-08-25T10:31:40.822Z,25.9
2018-08-25T10:32:31.155Z,26
2018-08-25T10:33:21.472Z,25.9
2018-08-25T10:34:11.024Z,26
2018-08-25T10:35:01.357Z,25.9
2018-08-25T10:35:51.838Z,25.9
2018-08-25T10:36:41.508Z,25.9
2018-08-25T10:37:31.274Z,25.9
2018-08-25T10:38:21.631Z,25.9
2018-08-25T10:39:11.688Z,25.9
2018-08-25T10:40:01.758Z,25.9
2018-08-25T10:40:51.824Z,25.9
2018-08-25T10:41:42.487Z,25.9
2018-08-25T10:42:31.949Z,25.9
2018-08-25T10:43:21.727Z,25.9
2018-08-25T10:44:12.096Z,25.9
2018-08-25T10:45:02.186Z,25.9
2018-08-25T10:45:52.210Z,25.9
2018-08-25T10:46:42.287Z,25.9
2018-08-25T10:47:32.063Z,25.9
2018-08-25T10:48:22.410Z,25.9
2018-08-25T10:49:12.550Z,25.9
2018-08-25T10:50:02.543Z,25.9
2018-08-25T10:50:52.597Z,25.9
2018-08-25T10:51:42.670Z,25.9
2018-08-25T10:52:32.739Z,25.9
2018-08-25T10:53:22.518Z,25.9
2018-08-25T10:54:12.885Z,25.9
2018-08-25T10:55:02.928Z,25.9
2018-08-25T10:55:53.013Z,25.9
2018-08-25T10:56:43.058Z,25.9
2018-08-25T10:57:33.123Z,25.9
2018-08-25T10:58:23.189Z,25.9
2018-08-25T10:59:13.256Z,25.9
2018-08-25T11:00:03.158Z,25.9
2018-08-25T11:00:54.176Z,25.9
2018-08-25T11:01:43.475Z,25.9
2018-08-25T11:02:33.518Z,25.9
2018-08-25T11:03:23.885Z,25.9
2018-08-25T11:04:13.646Z,25.9
2018-08-25T11:05:03.709Z,25.9
2018-08-25T11:05:53.775Z,25.9
2018-08-25T11:06:43.838Z,25.9
2018-08-25T11:07:33.905Z,25.9
2018-08-25T11:08:23.981Z,25.9
2018-08-25T11:09:14.053Z,25.9
2018-08-25T11:10:03.817Z,25.9
2018-08-25T11:10:53.887Z,25.9
2018-08-25T11:11:44.267Z,25.9
2018-08-25T11:12:34.304Z,25.9
2018-08-25T11:13:24.368Z,25.9
2018-08-25T11:14:14.447Z,25.9
2018-08-25T11:15:04.218Z,25.9
2018-08-25T11:15:54.565Z,25.9
2018-08-25T11:16:44.626Z,25.9
2018-08-25T11:17:34.695Z,25.9
2018-08-25T11:18:24.768Z,25.9
2018-08-25T11:19:14.829Z,25.9
2018-08-25T11:20:04.893Z,25.9
2018-08-25T11:20:54.678Z,25.9
2018-08-25T11:21:44.739Z,25.9
2018-08-25T11:22:35.094Z,25.9
2018-08-25T11:23:25.164Z,25.9
2018-08-25T11:24:15.215Z,25.9
2018-08-25T11:25:05.293Z,25.9
2018-08-25T11:25:55.355Z,25.9
2018-08-25T11:26:45.426Z,25.9
2018-08-25T11:27:35.485Z,25.9
2018-08-25T11:28:25.255Z,25.9
2018-08-25T11:29:15.790Z,25.9
2018-08-25T11:30:05.670Z,25.9
2018-08-25T11:30:55.181Z,25.9
2018-08-25T11:31:45.797Z,25.9
2018-08-25T11:32:35.879Z,25.9
2018-08-25T11:33:25.951Z,25.9
2018-08-25T11:34:15.994Z,25.9
2018-08-25T11:35:06.316Z,25.9
2018-08-25T11:35:56.132Z,25.9
2018-08-25T11:36:46.192Z,25.9
2018-08-25T11:37:36.573Z,25.9
2018-08-25T11:38:26.342Z,25.9
2018-08-25T11:39:16.161Z,25.9
2018-08-25T11:40:06.462Z,25.9
2018-08-25T11:40:56.837Z,25.9
2018-08-25T11:41:46.602Z,25.9
2018-08-25T11:42:36.651Z,25.9
2018-08-25T11:43:26.729Z,25.9
2018-08-25T11:44:16.499Z,25.9
2018-08-25T11:45:06.571Z,25.9
2018-08-25T11:45:56.933Z,25.9
2018-08-25T11:46:46.996Z,25.9
2018-08-25T11:47:36.770Z,25.9
2018-08-25T11:48:27.116Z,25.9
2018-08-25T11:49:16.910Z,25.9
2018-08-25T11:50:07.241Z,25.9
2018-08-25T11:50:57.309Z,25.9
2018-08-25T11:51:47.091Z,25.9
2018-08-25T11:52:37.452Z,25.9
2018-08-25T11:53:27.224Z,25.9
2018-08-25T11:54:17.583Z,25.9
2018-08-25T11:55:07.649Z,25.9
2018-08-25T11:55:58.009Z,25.9
2018-08-25T11:56:47.771Z,25.9
2018-08-25T11:57:37.828Z,25.9